sensor_id;sensor_type;location;lat;lon;timestamp;P1;durP1;ratioP1;P2;durP2;ratioP2
54430;SDS011;40342;52.998;5.862;2022-08-19T00:01:50;4.13;;;2.90;;
54430;SDS011;40342;52.998;5.862;2022-08-19T00:04:18;5.35;;;3.05;;
54430;SDS011;40342;52.998;5.862;2022-08-19T00:06:49;5.15;;;3.42;;
54430;SDS011;40342;52.998;5.862;2022-08-19T00:09:17;3.08;;;2.78;;
54430;SDS011;40342;52.998;5.862;2022-08-19T00:11:44;4.18;;;2.90;;
54430;SDS011;40342;52.998;5.862;2022-08-19T00:14:12;3.00;;;2.70;;
54430;SDS011;40342;52.998;5.862;2022-08-19T00:16:40;3.88;;;2.92;;
54430;SDS011;40342;52.998;5.862;2022-08-19T00:19:08;4.22;;;3.00;;
54430;SDS011;40342;52.998;5.862;2022-08-19T00:21:34;5.85;;;3.78;;
54430;SDS011;40342;52.998;5.862;2022-08-19T00:24:05;6.38;;;3.60;;
54430;SDS011;40342;52.998;5.862;2022-08-19T00:26:32;6.75;;;3.30;;
54430;SDS011;40342;52.998;5.862;2022-08-19T00:28:58;5.50;;;3.40;;
54430;SDS011;40342;52.998;5.862;2022-08-19T00:31:25;6.85;;;3.47;;
54430;SDS011;40342;52.998;5.862;2022-08-19T00:33:52;3.97;;;3.65;;
54430;SDS011;40342;52.998;5.862;2022-08-19T00:36:18;7.30;;;4.53;;
54430;SDS011;40342;52.998;5.862;2022-08-19T00:38:44;5.00;;;4.18;;
54430;SDS011;40342;52.998;5.862;2022-08-19T00:41:12;5.20;;;4.00;;
54430;SDS011;40342;52.998;5.862;2022-08-19T00:43:39;4.63;;;4.22;;
54430;SDS011;40342;52.998;5.862;2022-08-19T00:46:06;4.47;;;4.07;;
54430;SDS011;40342;52.998;5.862;2022-08-19T00:48:32;5.07;;;3.75;;
54430;SDS011;40342;52.998;5.862;2022-08-19T00:50:58;4.10;;;3.75;;
54430;SDS011;40342;52.998;5.862;2022-08-19T00:53:26;5.20;;;4.03;;
54430;SDS011;40342;52.998;5.862;2022-08-19T00:55:56;5.43;;;3.72;;
54430;SDS011;40342;52.998;5.862;2022-08-19T00:58:26;6.13;;;4.32;;
54430;SDS011;40342;52.998;5.862;2022-08-19T01:00:55;4.93;;;4.47;;
54430;SDS011;40342;52.998;5.862;2022-08-19T01:03:21;5.43;;;3.75;;
54430;SDS011;40342;52.998;5.862;2022-08-19T01:05:48;6.28;;;3.95;;
54430;SDS011;40342;52.998;5.862;2022-08-19T01:08:16;6.05;;;4.13;;
54430;SDS011;40342;52.998;5.862;2022-08-19T01:10:44;4.18;;;3.80;;
54430;SDS011;40342;52.998;5.862;2022-08-19T01:13:16;5.93;;;3.78;;
54430;SDS011;40342;52.998;5.862;2022-08-19T01:15:46;4.47;;;3.55;;
54430;SDS011;40342;52.998;5.862;2022-08-19T01:18:21;4.10;;;3.60;;
54430;SDS011;40342;52.998;5.862;2022-08-19T01:20:48;4.13;;;3.83;;
54430;SDS011;40342;52.998;5.862;2022-08-19T01:23:14;4.50;;;3.70;;
54430;SDS011;40342;52.998;5.862;2022-08-19T01:25:41;4.40;;;3.38;;
54430;SDS011;40342;52.998;5.862;2022-08-19T01:28:16;6.18;;;3.30;;
54430;SDS011;40342;52.998;5.862;2022-08-19T01:30:42;7.38;;;3.50;;
54430;SDS011;40342;52.998;5.862;2022-08-19T01:33:08;4.95;;;3.75;;
54430;SDS011;40342;52.998;5.862;2022-08-19T01:35:34;4.85;;;3.67;;
54430;SDS011;40342;52.998;5.862;2022-08-19T01:38:02;5.07;;;3.58;;
54430;SDS011;40342;52.998;5.862;2022-08-19T01:40:34;4.38;;;3.80;;
54430;SDS011;40342;52.998;5.862;2022-08-19T01:43:02;4.50;;;3.25;;
54430;SDS011;40342;52.998;5.862;2022-08-19T01:45:29;4.75;;;4.10;;
54430;SDS011;40342;52.998;5.862;2022-08-19T01:47:57;3.95;;;3.60;;
54430;SDS011;40342;52.998;5.862;2022-08-19T01:50:23;6.15;;;3.45;;
54430;SDS011;40342;52.998;5.862;2022-08-19T01:52:49;6.38;;;3.85;;
54430;SDS011;40342;52.998;5.862;2022-08-19T01:55:16;5.78;;;3.35;;
54430;SDS011;40342;52.998;5.862;2022-08-19T01:57:49;6.30;;;3.42;;
54430;SDS011;40342;52.998;5.862;2022-08-19T02:00:17;8.43;;;3.75;;
54430;SDS011;40342;52.998;5.862;2022-08-19T02:02:45;3.40;;;3.20;;
54430;SDS011;40342;52.998;5.862;2022-08-19T02:05:11;3.17;;;2.78;;
54430;SDS011;40342;52.998;5.862;2022-08-19T02:07:38;4.22;;;2.00;;
54430;SDS011;40342;52.998;5.862;2022-08-19T02:10:07;1.80;;;1.70;;
54430;SDS011;40342;52.998;5.862;2022-08-19T02:12:36;1.48;;;1.38;;
54430;SDS011;40342;52.998;5.862;2022-08-19T02:15:02;1.38;;;0.80;;
54430;SDS011;40342;52.998;5.862;2022-08-19T02:17:28;6.50;;;1.23;;
54430;SDS011;40342;52.998;5.862;2022-08-19T02:19:55;3.35;;;0.80;;
54430;SDS011;40342;52.998;5.862;2022-08-19T02:22:21;0.80;;;0.80;;
54430;SDS011;40342;52.998;5.862;2022-08-19T02:24:47;1.38;;;1.15;;
54430;SDS011;40342;52.998;5.862;2022-08-19T02:27:14;1.60;;;1.50;;
54430;SDS011;40342;52.998;5.862;2022-08-19T02:29:40;2.00;;;1.80;;
54430;SDS011;40342;52.998;5.862;2022-08-19T02:32:06;2.55;;;2.25;;
54430;SDS011;40342;52.998;5.862;2022-08-19T02:34:31;2.63;;;2.42;;
54430;SDS011;40342;52.998;5.862;2022-08-19T02:36:57;4.78;;;4.00;;
54430;SDS011;40342;52.998;5.862;2022-08-19T02:39:23;5.07;;;4.63;;
54430;SDS011;40342;52.998;5.862;2022-08-19T02:41:48;5.68;;;5.10;;
54430;SDS011;40342;52.998;5.862;2022-08-19T02:44:15;5.75;;;5.20;;
54430;SDS011;40342;52.998;5.862;2022-08-19T02:46:41;8.40;;;7.60;;
54430;SDS011;40342;52.998;5.862;2022-08-19T02:49:09;7.80;;;7.10;;
54430;SDS011;40342;52.998;5.862;2022-08-19T02:51:36;8.45;;;6.93;;
54430;SDS011;40342;52.998;5.862;2022-08-19T02:54:04;8.98;;;6.28;;
54430;SDS011;40342;52.998;5.862;2022-08-19T02:56:31;6.70;;;5.78;;
54430;SDS011;40342;52.998;5.862;2022-08-19T02:58:59;6.07;;;5.50;;
54430;SDS011;40342;52.998;5.862;2022-08-19T03:01:26;6.90;;;5.85;;
54430;SDS011;40342;52.998;5.862;2022-08-19T03:03:54;8.23;;;6.10;;
54430;SDS011;40342;52.998;5.862;2022-08-19T03:06:21;8.27;;;6.00;;
54430;SDS011;40342;52.998;5.862;2022-08-19T03:08:47;7.43;;;6.00;;
54430;SDS011;40342;52.998;5.862;2022-08-19T03:13:42;9.93;;;6.57;;
54430;SDS011;40342;52.998;5.862;2022-08-19T03:16:08;7.07;;;6.47;;
54430;SDS011;40342;52.998;5.862;2022-08-19T03:18:34;7.28;;;6.68;;
54430;SDS011;40342;52.998;5.862;2022-08-19T03:21:00;6.55;;;5.95;;
54430;SDS011;40342;52.998;5.862;2022-08-19T03:23:25;8.15;;;6.18;;
54430;SDS011;40342;52.998;5.862;2022-08-19T03:25:52;7.35;;;6.65;;
54430;SDS011;40342;52.998;5.862;2022-08-19T03:28:18;6.97;;;6.43;;
54430;SDS011;40342;52.998;5.862;2022-08-19T03:33:42;7.63;;;6.90;;
54430;SDS011;40342;52.998;5.862;2022-08-19T03:36:09;7.60;;;6.90;;
54430;SDS011;40342;52.998;5.862;2022-08-19T03:38:37;9.07;;;7.75;;
54430;SDS011;40342;52.998;5.862;2022-08-19T03:41:06;8.35;;;7.55;;
54430;SDS011;40342;52.998;5.862;2022-08-19T03:43:35;8.13;;;7.15;;
54430;SDS011;40342;52.998;5.862;2022-08-19T03:46:02;8.13;;;7.38;;
54430;SDS011;40342;52.998;5.862;2022-08-19T03:48:33;8.80;;;8.02;;
54430;SDS011;40342;52.998;5.862;2022-08-19T03:51:00;9.43;;;7.40;;
54430;SDS011;40342;52.998;5.862;2022-08-19T03:53:26;8.98;;;8.18;;
54430;SDS011;40342;52.998;5.862;2022-08-19T03:55:53;8.18;;;7.35;;
54430;SDS011;40342;52.998;5.862;2022-08-19T03:58:20;9.57;;;8.57;;
54430;SDS011;40342;52.998;5.862;2022-08-19T04:00:45;9.57;;;8.70;;
54430;SDS011;40342;52.998;5.862;2022-08-19T04:03:11;11.32;;;9.45;;
54430;SDS011;40342;52.998;5.862;2022-08-19T04:05:37;11.05;;;10.15;;
54430;SDS011;40342;52.998;5.862;2022-08-19T04:08:03;11.07;;;10.10;;
54430;SDS011;40342;52.998;5.862;2022-08-19T04:10:31;13.20;;;11.18;;
54430;SDS011;40342;52.998;5.862;2022-08-19T04:13:03;11.15;;;10.13;;
54430;SDS011;40342;52.998;5.862;2022-08-19T04:15:31;10.50;;;9.50;;
54430;SDS011;40342;52.998;5.862;2022-08-19T04:18:03;10.63;;;9.73;;
54430;SDS011;40342;52.998;5.862;2022-08-19T04:20:31;11.88;;;10.80;;
54430;SDS011;40342;52.998;5.862;2022-08-19T04:22:56;11.48;;;10.38;;
54430;SDS011;40342;52.998;5.862;2022-08-19T04:25:22;11.27;;;9.88;;
54430;SDS011;40342;52.998;5.862;2022-08-19T04:27:48;11.32;;;10.43;;
54430;SDS011;40342;52.998;5.862;2022-08-19T04:30:14;11.35;;;10.35;;
54430;SDS011;40342;52.998;5.862;2022-08-19T04:32:40;11.88;;;10.77;;
54430;SDS011;40342;52.998;5.862;2022-08-19T04:35:06;12.00;;;10.90;;
54430;SDS011;40342;52.998;5.862;2022-08-19T04:37:32;12.02;;;10.82;;
54430;SDS011;40342;52.998;5.862;2022-08-19T04:39:58;12.23;;;11.13;;
54430;SDS011;40342;52.998;5.862;2022-08-19T04:42:43;11.60;;;10.50;;
54430;SDS011;40342;52.998;5.862;2022-08-19T04:45:10;11.30;;;10.30;;
54430;SDS011;40342;52.998;5.862;2022-08-19T04:47:38;13.55;;;10.98;;
54430;SDS011;40342;52.998;5.862;2022-08-19T04:50:05;11.07;;;9.95;;
54430;SDS011;40342;52.998;5.862;2022-08-19T04:52:32;11.50;;;10.40;;
54430;SDS011;40342;52.998;5.862;2022-08-19T04:54:58;11.10;;;10.10;;
54430;SDS011;40342;52.998;5.862;2022-08-19T04:57:24;13.32;;;11.02;;
54430;SDS011;40342;52.998;5.862;2022-08-19T04:59:54;13.30;;;11.48;;
54430;SDS011;40342;52.998;5.862;2022-08-19T05:02:21;12.75;;;11.55;;
54430;SDS011;40342;52.998;5.862;2022-08-19T05:04:49;12.52;;;10.93;;
54430;SDS011;40342;52.998;5.862;2022-08-19T05:07:15;14.57;;;12.32;;
54430;SDS011;40342;52.998;5.862;2022-08-19T05:09:41;13.77;;;12.38;;
54430;SDS011;40342;52.998;5.862;2022-08-19T05:12:07;13.52;;;12.25;;
54430;SDS011;40342;52.998;5.862;2022-08-19T05:14:33;13.10;;;11.77;;
54430;SDS011;40342;52.998;5.862;2022-08-19T05:17:00;12.10;;;10.90;;
54430;SDS011;40342;52.998;5.862;2022-08-19T05:19:26;13.57;;;12.30;;
54430;SDS011;40342;52.998;5.862;2022-08-19T05:22:10;13.55;;;12.25;;
54430;SDS011;40342;52.998;5.862;2022-08-19T05:24:54;13.05;;;11.85;;
54430;SDS011;40342;52.998;5.862;2022-08-19T05:27:20;13.43;;;11.98;;
54430;SDS011;40342;52.998;5.862;2022-08-19T05:29:45;12.80;;;11.63;;
54430;SDS011;40342;52.998;5.862;2022-08-19T05:32:11;14.07;;;12.20;;
54430;SDS011;40342;52.998;5.862;2022-08-19T05:34:37;13.45;;;11.73;;
54430;SDS011;40342;52.998;5.862;2022-08-19T05:37:03;13.32;;;11.95;;
54430;SDS011;40342;52.998;5.862;2022-08-19T05:39:31;13.40;;;12.05;;
54430;SDS011;40342;52.998;5.862;2022-08-19T05:41:59;13.85;;;12.43;;
54430;SDS011;40342;52.998;5.862;2022-08-19T05:44:29;13.05;;;11.73;;
54430;SDS011;40342;52.998;5.862;2022-08-19T05:46:57;12.82;;;11.63;;
54430;SDS011;40342;52.998;5.862;2022-08-19T05:49:24;13.25;;;11.98;;
54430;SDS011;40342;52.998;5.862;2022-08-19T05:51:51;13.73;;;12.32;;
54430;SDS011;40342;52.998;5.862;2022-08-19T05:54:18;13.70;;;12.43;;
54430;SDS011;40342;52.998;5.862;2022-08-19T05:56:44;14.18;;;12.88;;
54430;SDS011;40342;52.998;5.862;2022-08-19T05:59:12;14.27;;;12.82;;
54430;SDS011;40342;52.998;5.862;2022-08-19T06:01:40;14.07;;;12.77;;
54430;SDS011;40342;52.998;5.862;2022-08-19T06:04:07;16.95;;;14.02;;
54430;SDS011;40342;52.998;5.862;2022-08-19T06:06:34;15.23;;;13.85;;
54430;SDS011;40342;52.998;5.862;2022-08-19T06:09:04;13.50;;;12.30;;
54430;SDS011;40342;52.998;5.862;2022-08-19T06:11:36;13.70;;;12.48;;
54430;SDS011;40342;52.998;5.862;2022-08-19T06:14:06;14.40;;;13.00;;
54430;SDS011;40342;52.998;5.862;2022-08-19T06:16:39;13.80;;;12.55;;
54430;SDS011;40342;52.998;5.862;2022-08-19T06:19:07;14.95;;;13.52;;
54430;SDS011;40342;52.998;5.862;2022-08-19T06:21:37;13.90;;;12.52;;
54430;SDS011;40342;52.998;5.862;2022-08-19T06:24:05;14.65;;;13.05;;
54430;SDS011;40342;52.998;5.862;2022-08-19T06:26:33;16.17;;;14.10;;
54430;SDS011;40342;52.998;5.862;2022-08-19T06:29:02;14.82;;;13.40;;
54430;SDS011;40342;52.998;5.862;2022-08-19T06:31:29;15.48;;;14.07;;
54430;SDS011;40342;52.998;5.862;2022-08-19T06:33:58;17.08;;;14.90;;
54430;SDS011;40342;52.998;5.862;2022-08-19T06:36:28;18.90;;;14.20;;
54430;SDS011;40342;52.998;5.862;2022-08-19T06:38:58;16.70;;;14.70;;
54430;SDS011;40342;52.998;5.862;2022-08-19T06:41:34;15.30;;;13.55;;
54430;SDS011;40342;52.998;5.862;2022-08-19T06:44:03;14.77;;;13.48;;
54430;SDS011;40342;52.998;5.862;2022-08-19T06:46:29;15.90;;;14.35;;
54430;SDS011;40342;52.998;5.862;2022-08-19T06:48:55;16.60;;;14.85;;
54430;SDS011;40342;52.998;5.862;2022-08-19T06:51:21;16.92;;;15.15;;
54430;SDS011;40342;52.998;5.862;2022-08-19T06:53:49;16.48;;;14.90;;
54430;SDS011;40342;52.998;5.862;2022-08-19T06:56:17;18.88;;;16.58;;
54430;SDS011;40342;52.998;5.862;2022-08-19T06:58:45;18.40;;;16.42;;
54430;SDS011;40342;52.998;5.862;2022-08-19T07:01:13;16.80;;;15.18;;
54430;SDS011;40342;52.998;5.862;2022-08-19T07:03:38;17.90;;;16.00;;
54430;SDS011;40342;52.998;5.862;2022-08-19T07:06:05;18.13;;;16.35;;
54430;SDS011;40342;52.998;5.862;2022-08-19T07:08:33;18.48;;;16.65;;
54430;SDS011;40342;52.998;5.862;2022-08-19T07:11:01;17.48;;;15.88;;
54430;SDS011;40342;52.998;5.862;2022-08-19T07:13:27;17.65;;;16.00;;
54430;SDS011;40342;52.998;5.862;2022-08-19T07:15:53;17.08;;;15.40;;
54430;SDS011;40342;52.998;5.862;2022-08-19T07:18:19;19.83;;;16.83;;
54430;SDS011;40342;52.998;5.862;2022-08-19T07:20:46;19.17;;;16.73;;
54430;SDS011;40342;52.998;5.862;2022-08-19T07:23:13;19.83;;;17.83;;
54430;SDS011;40342;52.998;5.862;2022-08-19T07:25:38;19.90;;;16.75;;
54430;SDS011;40342;52.998;5.862;2022-08-19T07:28:04;19.63;;;17.50;;
54430;SDS011;40342;52.998;5.862;2022-08-19T07:30:30;19.23;;;17.33;;
54430;SDS011;40342;52.998;5.862;2022-08-19T07:32:56;21.70;;;18.70;;
54430;SDS011;40342;52.998;5.862;2022-08-19T07:35:22;22.90;;;20.50;;
54430;SDS011;40342;52.998;5.862;2022-08-19T07:37:48;23.05;;;20.75;;
54430;SDS011;40342;52.998;5.862;2022-08-19T07:40:14;24.40;;;22.02;;
54430;SDS011;40342;52.998;5.862;2022-08-19T07:42:40;23.88;;;21.42;;
54430;SDS011;40342;52.998;5.862;2022-08-19T07:45:08;24.58;;;22.05;;
54430;SDS011;40342;52.998;5.862;2022-08-19T07:47:34;25.95;;;22.80;;
54430;SDS011;40342;52.998;5.862;2022-08-19T07:50:00;25.98;;;23.33;;
54430;SDS011;40342;52.998;5.862;2022-08-19T07:52:25;30.13;;;26.27;;
54430;SDS011;40342;52.998;5.862;2022-08-19T07:54:51;28.40;;;25.38;;
54430;SDS011;40342;52.998;5.862;2022-08-19T07:57:17;29.80;;;26.08;;
54430;SDS011;40342;52.998;5.862;2022-08-19T07:59:44;29.77;;;26.75;;
54430;SDS011;40342;52.998;5.862;2022-08-19T08:02:10;29.63;;;26.55;;
54430;SDS011;40342;52.998;5.862;2022-08-19T08:04:35;29.33;;;26.30;;
54430;SDS011;40342;52.998;5.862;2022-08-19T08:07:19;34.30;;;28.23;;
54430;SDS011;40342;52.998;5.862;2022-08-19T08:10:04;29.77;;;26.67;;
54430;SDS011;40342;52.998;5.862;2022-08-19T08:12:33;30.40;;;27.30;;
54430;SDS011;40342;52.998;5.862;2022-08-19T08:15:05;31.08;;;27.75;;
54430;SDS011;40342;52.998;5.862;2022-08-19T08:17:34;30.48;;;27.27;;
54430;SDS011;40342;52.998;5.862;2022-08-19T08:20:02;31.25;;;28.13;;
54430;SDS011;40342;52.998;5.862;2022-08-19T08:22:31;32.03;;;27.45;;
54430;SDS011;40342;52.998;5.862;2022-08-19T08:25:18;28.65;;;25.58;;
54430;SDS011;40342;52.998;5.862;2022-08-19T08:27:45;27.38;;;24.58;;
54430;SDS011;40342;52.998;5.862;2022-08-19T08:30:13;25.90;;;23.15;;
54430;SDS011;40342;52.998;5.862;2022-08-19T08:32:44;24.48;;;21.88;;
54430;SDS011;40342;52.998;5.862;2022-08-19T08:35:11;26.08;;;23.58;;
54430;SDS011;40342;52.998;5.862;2022-08-19T08:37:40;24.52;;;22.00;;
54430;SDS011;40342;52.998;5.862;2022-08-19T08:40:07;22.45;;;20.05;;
54430;SDS011;40342;52.998;5.862;2022-08-19T08:43:39;19.77;;;16.70;;
54430;SDS011;40342;52.998;5.862;2022-08-19T08:48:40;16.17;;;13.40;;
54430;SDS011;40342;52.998;5.862;2022-08-19T08:51:12;16.38;;;13.65;;
54430;SDS011;40342;52.998;5.862;2022-08-19T08:54:04;21.80;;;15.25;;
54430;SDS011;40342;52.998;5.862;2022-08-19T08:56:31;19.40;;;14.98;;
54430;SDS011;40342;52.998;5.862;2022-08-19T08:59:07;17.20;;;14.35;;
54430;SDS011;40342;52.998;5.862;2022-08-19T09:01:46;17.90;;;16.00;;
54430;SDS011;40342;52.998;5.862;2022-08-19T09:04:13;15.38;;;13.77;;
54430;SDS011;40342;52.998;5.862;2022-08-19T09:06:50;19.00;;;14.77;;
54430;SDS011;40342;52.998;5.862;2022-08-19T09:09:30;18.13;;;15.18;;
54430;SDS011;40342;52.998;5.862;2022-08-19T09:12:12;15.63;;;13.45;;
54430;SDS011;40342;52.998;5.862;2022-08-19T09:17:26;16.25;;;14.43;;
54430;SDS011;40342;52.998;5.862;2022-08-19T09:20:00;16.13;;;13.73;;
54430;SDS011;40342;52.998;5.862;2022-08-19T09:22:38;22.27;;;14.75;;
54430;SDS011;40342;52.998;5.862;2022-08-19T09:25:07;19.98;;;14.40;;
54430;SDS011;40342;52.998;5.862;2022-08-19T09:27:35;19.52;;;14.43;;
54430;SDS011;40342;52.998;5.862;2022-08-19T09:30:03;15.98;;;12.43;;
54430;SDS011;40342;52.998;5.862;2022-08-19T09:32:29;15.40;;;11.13;;
54430;SDS011;40342;52.998;5.862;2022-08-19T09:34:55;17.13;;;11.68;;
54430;SDS011;40342;52.998;5.862;2022-08-19T09:37:23;14.40;;;11.20;;
54430;SDS011;40342;52.998;5.862;2022-08-19T09:39:49;15.07;;;11.82;;
54430;SDS011;40342;52.998;5.862;2022-08-19T09:42:16;21.20;;;12.88;;
54430;SDS011;40342;52.998;5.862;2022-08-19T09:44:42;17.45;;;13.35;;
54430;SDS011;40342;52.998;5.862;2022-08-19T09:47:09;17.65;;;13.75;;
54430;SDS011;40342;52.998;5.862;2022-08-19T09:49:36;14.30;;;11.05;;
54430;SDS011;40342;52.998;5.862;2022-08-19T09:52:03;15.05;;;11.50;;
54430;SDS011;40342;52.998;5.862;2022-08-19T09:54:29;15.55;;;12.20;;
54430;SDS011;40342;52.998;5.862;2022-08-19T09:56:55;17.13;;;12.15;;
54430;SDS011;40342;52.998;5.862;2022-08-19T09:59:25;16.58;;;11.65;;
54430;SDS011;40342;52.998;5.862;2022-08-19T10:01:51;23.55;;;13.50;;
54430;SDS011;40342;52.998;5.862;2022-08-19T10:04:17;20.17;;;12.70;;
54430;SDS011;40342;52.998;5.862;2022-08-19T10:06:42;19.55;;;13.45;;
54430;SDS011;40342;52.998;5.862;2022-08-19T10:09:08;17.73;;;13.73;;
54430;SDS011;40342;52.998;5.862;2022-08-19T10:11:36;27.60;;;13.85;;
54430;SDS011;40342;52.998;5.862;2022-08-19T10:14:04;18.05;;;14.20;;
54430;SDS011;40342;52.998;5.862;2022-08-19T10:16:31;17.17;;;11.93;;
54430;SDS011;40342;52.998;5.862;2022-08-19T10:18:56;19.48;;;11.48;;
54430;SDS011;40342;52.998;5.862;2022-08-19T10:21:24;18.27;;;12.63;;
54430;SDS011;40342;52.998;5.862;2022-08-19T10:23:53;19.35;;;14.05;;
54430;SDS011;40342;52.998;5.862;2022-08-19T10:26:23;23.15;;;15.52;;
54430;SDS011;40342;52.998;5.862;2022-08-19T10:28:51;21.23;;;14.93;;
54430;SDS011;40342;52.998;5.862;2022-08-19T10:31:28;17.65;;;13.77;;
54430;SDS011;40342;52.998;5.862;2022-08-19T10:33:55;17.08;;;11.90;;
54430;SDS011;40342;52.998;5.862;2022-08-19T10:36:25;15.95;;;13.65;;
54430;SDS011;40342;52.998;5.862;2022-08-19T10:38:57;17.10;;;13.38;;
54430;SDS011;40342;52.998;5.862;2022-08-19T10:41:28;24.38;;;13.52;;
54430;SDS011;40342;52.998;5.862;2022-08-19T10:43:57;19.70;;;13.00;;
54430;SDS011;40342;52.998;5.862;2022-08-19T10:46:26;17.55;;;12.60;;
54430;SDS011;40342;52.998;5.862;2022-08-19T10:48:53;24.27;;;13.27;;
54430;SDS011;40342;52.998;5.862;2022-08-19T10:51:19;20.25;;;14.40;;
54430;SDS011;40342;52.998;5.862;2022-08-19T10:54:04;19.33;;;16.05;;
54430;SDS011;40342;52.998;5.862;2022-08-19T10:56:30;24.67;;;15.15;;
54430;SDS011;40342;52.998;5.862;2022-08-19T10:59:16;19.08;;;15.98;;
54430;SDS011;40342;52.998;5.862;2022-08-19T11:01:45;26.33;;;17.98;;
54430;SDS011;40342;52.998;5.862;2022-08-19T11:04:12;30.65;;;19.00;;
54430;SDS011;40342;52.998;5.862;2022-08-19T11:06:39;25.30;;;19.05;;
54430;SDS011;40342;52.998;5.862;2022-08-19T11:09:14;23.08;;;19.30;;
54430;SDS011;40342;52.998;5.862;2022-08-19T11:11:41;21.08;;;16.77;;
54430;SDS011;40342;52.998;5.862;2022-08-19T11:14:09;23.05;;;17.92;;
54430;SDS011;40342;52.998;5.862;2022-08-19T11:16:36;25.45;;;19.98;;
54430;SDS011;40342;52.998;5.862;2022-08-19T11:19:04;24.20;;;18.77;;
54430;SDS011;40342;52.998;5.862;2022-08-19T11:21:34;22.30;;;17.67;;
54430;SDS011;40342;52.998;5.862;2022-08-19T11:24:02;24.60;;;19.08;;
54430;SDS011;40342;52.998;5.862;2022-08-19T11:26:30;23.70;;;18.92;;
54430;SDS011;40342;52.998;5.862;2022-08-19T11:28:57;22.40;;;18.00;;
54430;SDS011;40342;52.998;5.862;2022-08-19T11:31:25;25.48;;;19.45;;
54430;SDS011;40342;52.998;5.862;2022-08-19T11:33:53;22.15;;;18.20;;
54430;SDS011;40342;52.998;5.862;2022-08-19T11:36:26;25.80;;;18.30;;
54430;SDS011;40342;52.998;5.862;2022-08-19T11:38:53;23.70;;;17.73;;
54430;SDS011;40342;52.998;5.862;2022-08-19T11:41:19;26.13;;;18.30;;
54430;SDS011;40342;52.998;5.862;2022-08-19T11:43:48;26.55;;;17.40;;
54430;SDS011;40342;52.998;5.862;2022-08-19T11:46:14;22.90;;;17.67;;
54430;SDS011;40342;52.998;5.862;2022-08-19T11:48:41;23.90;;;17.73;;
54430;SDS011;40342;52.998;5.862;2022-08-19T11:51:08;22.70;;;17.98;;
54430;SDS011;40342;52.998;5.862;2022-08-19T11:53:39;19.85;;;15.20;;
54430;SDS011;40342;52.998;5.862;2022-08-19T11:56:06;22.05;;;16.25;;
54430;SDS011;40342;52.998;5.862;2022-08-19T11:58:33;22.52;;;17.13;;
54430;SDS011;40342;52.998;5.862;2022-08-19T12:00:59;28.48;;;17.90;;
54430;SDS011;40342;52.998;5.862;2022-08-19T12:03:25;20.30;;;15.45;;
54430;SDS011;40342;52.998;5.862;2022-08-19T12:05:52;19.50;;;14.70;;
54430;SDS011;40342;52.998;5.862;2022-08-19T12:08:18;17.25;;;13.93;;
54430;SDS011;40342;52.998;5.862;2022-08-19T12:10:44;20.27;;;15.77;;
54430;SDS011;40342;52.998;5.862;2022-08-19T12:13:10;25.10;;;17.42;;
54430;SDS011;40342;52.998;5.862;2022-08-19T12:15:40;24.65;;;17.55;;
54430;SDS011;40342;52.998;5.862;2022-08-19T12:18:06;30.70;;;24.02;;
54430;SDS011;40342;52.998;5.862;2022-08-19T12:20:35;35.53;;;21.58;;
54430;SDS011;40342;52.998;5.862;2022-08-19T12:23:02;27.17;;;22.23;;
54430;SDS011;40342;52.998;5.862;2022-08-19T12:25:29;30.90;;;22.52;;
54430;SDS011;40342;52.998;5.862;2022-08-19T12:27:55;25.73;;;21.55;;
54430;SDS011;40342;52.998;5.862;2022-08-19T12:30:21;34.95;;;22.85;;
54430;SDS011;40342;52.998;5.862;2022-08-19T12:32:47;27.15;;;21.50;;
54430;SDS011;40342;52.998;5.862;2022-08-19T12:35:12;30.33;;;22.70;;
54430;SDS011;40342;52.998;5.862;2022-08-19T12:37:38;28.40;;;21.80;;
54430;SDS011;40342;52.998;5.862;2022-08-19T12:40:09;28.85;;;21.63;;
54430;SDS011;40342;52.998;5.862;2022-08-19T12:42:37;31.75;;;23.17;;
54430;SDS011;40342;52.998;5.862;2022-08-19T12:45:07;31.48;;;22.77;;
54430;SDS011;40342;52.998;5.862;2022-08-19T12:47:34;23.85;;;19.92;;
54430;SDS011;40342;52.998;5.862;2022-08-19T12:49:59;10.05;;;7.00;;
54430;SDS011;40342;52.998;5.862;2022-08-19T12:52:26;7.03;;;4.78;;
54430;SDS011;40342;52.998;5.862;2022-08-19T12:54:53;12.52;;;7.40;;
54430;SDS011;40342;52.998;5.862;2022-08-19T12:57:24;17.75;;;7.55;;
54430;SDS011;40342;52.998;5.862;2022-08-19T12:59:52;11.90;;;6.23;;
54430;SDS011;40342;52.998;5.862;2022-08-19T13:02:18;38.95;;;9.10;;
54430;SDS011;40342;52.998;5.862;2022-08-19T13:04:44;24.00;;;9.52;;
54430;SDS011;40342;52.998;5.862;2022-08-19T13:07:10;19.13;;;6.15;;
54430;SDS011;40342;52.998;5.862;2022-08-19T13:09:36;8.30;;;3.97;;
54430;SDS011;40342;52.998;5.862;2022-08-19T13:12:02;6.20;;;3.80;;
54430;SDS011;40342;52.998;5.862;2022-08-19T13:14:32;5.72;;;4.55;;
54430;SDS011;40342;52.998;5.862;2022-08-19T13:16:58;7.25;;;4.68;;
54430;SDS011;40342;52.998;5.862;2022-08-19T13:19:24;2.72;;;2.53;;
54430;SDS011;40342;52.998;5.862;2022-08-19T13:21:50;3.42;;;2.80;;
54430;SDS011;40342;52.998;5.862;2022-08-19T13:24:16;3.35;;;2.40;;
54430;SDS011;40342;52.998;5.862;2022-08-19T13:26:42;3.20;;;2.88;;
54430;SDS011;40342;52.998;5.862;2022-08-19T13:29:08;6.43;;;3.15;;
54430;SDS011;40342;52.998;5.862;2022-08-19T13:31:52;4.20;;;3.85;;
54430;SDS011;40342;52.998;5.862;2022-08-19T13:34:36;6.40;;;4.20;;
54430;SDS011;40342;52.998;5.862;2022-08-19T13:37:02;7.15;;;4.97;;
54430;SDS011;40342;52.998;5.862;2022-08-19T13:39:29;6.00;;;4.75;;
54430;SDS011;40342;52.998;5.862;2022-08-19T13:41:57;5.18;;;4.72;;
54430;SDS011;40342;52.998;5.862;2022-08-19T13:44:24;7.38;;;5.30;;
54430;SDS011;40342;52.998;5.862;2022-08-19T13:46:50;6.78;;;5.30;;
54430;SDS011;40342;52.998;5.862;2022-08-19T13:49:17;9.98;;;6.35;;
54430;SDS011;40342;52.998;5.862;2022-08-19T13:51:45;9.13;;;8.23;;
54430;SDS011;40342;52.998;5.862;2022-08-19T13:54:11;11.30;;;9.35;;
54430;SDS011;40342;52.998;5.862;2022-08-19T13:56:41;12.95;;;10.63;;
54430;SDS011;40342;52.998;5.862;2022-08-19T13:59:09;16.75;;;13.52;;
54430;SDS011;40342;52.998;5.862;2022-08-19T14:01:35;17.48;;;15.02;;
54430;SDS011;40342;52.998;5.862;2022-08-19T14:04:02;20.73;;;16.15;;
54430;SDS011;40342;52.998;5.862;2022-08-19T14:06:28;22.20;;;15.90;;
54430;SDS011;40342;52.998;5.862;2022-08-19T14:08:53;20.20;;;15.35;;
54430;SDS011;40342;52.998;5.862;2022-08-19T14:11:19;21.10;;;15.20;;
54430;SDS011;40342;52.998;5.862;2022-08-19T14:13:44;16.20;;;13.82;;
54430;SDS011;40342;52.998;5.862;2022-08-19T14:16:11;19.27;;;16.98;;
54430;SDS011;40342;52.998;5.862;2022-08-19T14:18:39;19.55;;;17.27;;
54430;SDS011;40342;52.998;5.862;2022-08-19T14:21:06;21.25;;;17.38;;
54430;SDS011;40342;52.998;5.862;2022-08-19T14:23:33;19.42;;;17.33;;
54430;SDS011;40342;52.998;5.862;2022-08-19T14:26:19;20.50;;;15.95;;
54430;SDS011;40342;52.998;5.862;2022-08-19T14:28:46;21.55;;;16.67;;
54430;SDS011;40342;52.998;5.862;2022-08-19T14:31:13;21.23;;;15.63;;
54430;SDS011;40342;52.998;5.862;2022-08-19T14:33:44;20.30;;;14.65;;
54430;SDS011;40342;52.998;5.862;2022-08-19T14:36:10;19.83;;;14.80;;
54430;SDS011;40342;52.998;5.862;2022-08-19T14:38:36;14.68;;;13.02;;
54430;SDS011;40342;52.998;5.862;2022-08-19T14:41:09;15.35;;;12.32;;
54430;SDS011;40342;52.998;5.862;2022-08-19T14:43:41;18.67;;;11.88;;
54430;SDS011;40342;52.998;5.862;2022-08-19T14:46:10;15.35;;;12.90;;
54430;SDS011;40342;52.998;5.862;2022-08-19T14:48:37;14.30;;;11.82;;